Darstellungsparameter: Aktuell verwendete Einstellungen:
Skalierung der Graphiken ... ?
xyx+y,   Skalierungsfaktor:      Skalierung: Modus: x, Faktor: 1
Darstellungszeitraum ... ?
Vom - - bis: - -   Zeitraum: 13.09.2015 - 13.10.2015
Min/Max/Avg-Anzeige ... ?
Zeige MMA aktuell
Zeige MMA Monat
Zeige MMA alles
Zeige --A aktuell
Zeige --A Monat
Zeige --A alles
Keine MMA-Anzeige
MMA:
Average (ber die Originaldaten)
MMA-Basis: 13.09.2015 - 13.10.2015
Quicknavigation für Darstellung... ?
Tage:      1T, 2T, 3T, 5T -1T -2T -3T -5T +1T +2T +3T +5T
Wochen: 1W, 2W, 3W -1W -2W -3W +1W +2W +3W
Monate: 1M, 3M, 6M -1M -3M -6M +1M +3M +6M
Jahre:    1J, 3J, 5J, 10J -1J -3J -5J -10J +1J +3J +5J +10J
Nutze für die Darstellung ... ?
Originaldaten oder ...
Mittelwerte Minima Maxima auf...
Stundenbasis Tagesbasis Wochenbasis
Monatsbasis Jahresbasis      Datenbasis: Mittelwerte auf Stundenbasis
Darstellen als:
Statistik (Auto) Statistik J:M      Darstellung:
Zur Graphik,    zurück zur Übersicht aller Sensoren.
 
Tabellarische Datenbersicht: ?
 
Sensor: Nr:Datum:Temp:Abs-Feuchte:Windchill:Wind:
Aussen-T/F 1 13-09-2015 00:00:00 16.18333 C 12.95 g/m*3 16.18 C 0 km/h
2 13-09-2015 01:00:00 15.83333 C 12.78 g/m*3 15.83 C 0 km/h
3 13-09-2015 02:00:00 15.64167 C 12.67 g/m*3 15.64 C 0 km/h
4 13-09-2015 03:00:00 15.76667 C 12.76 g/m*3 15.77 C 0 km/h
5 13-09-2015 04:00:00 16.01667 C 12.91 g/m*3 16.02 C 0 km/h
6 13-09-2015 05:00:00 16.05833 C 12.85 g/m*3 16.06 C 0 km/h
7 13-09-2015 06:00:00 16.075 C 12.87 g/m*3 16.08 C 0.26667 km/h
8 13-09-2015 07:00:00 16.7 C 13.06 g/m*3 16.7 C 0.66667 km/h
9 13-09-2015 08:00:00 17.34167 C 13.22 g/m*3 17.34 C 1.46667 km/h
10 13-09-2015 09:00:00 17.88333 C 13.51 g/m*3 17.88 C 0.66667 km/h
11 13-09-2015 10:00:00 18.7 C 13.41 g/m*3 18.7 C 3.46667 km/h
12 13-09-2015 11:00:00 19.08333 C 13.69 g/m*3 19.08 C 1.86667 km/h
13 13-09-2015 12:00:00 18.275 C 14.1 g/m*3 18.27 C 2.26667 km/h
14 13-09-2015 13:00:00 18.48333 C 13.96 g/m*3 18.48 C 3.46667 km/h
15 13-09-2015 14:00:00 18.24167 C 14.18 g/m*3 18.24 C 2.53333 km/h
16 13-09-2015 15:00:00 18.05833 C 14.32 g/m*3 18.06 C 0.93333 km/h
17 13-09-2015 16:00:00 18.225 C 14.59 g/m*3 18.23 C 1.33333 km/h
18 13-09-2015 17:00:00 18.16667 C 14.68 g/m*3 18.17 C 0.66667 km/h
19 13-09-2015 18:00:00 18.475 C 14.9 g/m*3 18.48 C 0.4 km/h
20 13-09-2015 19:00:00 17.68333 C 14.13 g/m*3 17.68 C 0 km/h
21 13-09-2015 20:00:00 16.075 C 13.05 g/m*3 16.08 C 0 km/h
22 13-09-2015 21:00:00 15.64167 C 12.8 g/m*3 15.64 C 0.13333 km/h
23 13-09-2015 22:00:00 15.4 C 12.66 g/m*3 15.4 C 0 km/h
24 13-09-2015 23:00:00 15.70833 C 12.98 g/m*3 15.71 C 1.34167 km/h
25 14-09-2015 00:00:00 15.88333 C 13.12 g/m*3 15.88 C 0 km/h
Sensor: Nr:Datum:Temp:Abs-Feuchte:Windchill:Wind:
Aussen-T/F 26 14-09-2015 01:00:00 15.65833 C 12.95 g/m*3 15.66 C 0 km/h
27 14-09-2015 02:00:00 15.525 C 12.84 g/m*3 15.53 C 0 km/h
28 14-09-2015 03:00:00 15.38333 C 12.73 g/m*3 15.38 C 0 km/h
29 14-09-2015 04:00:00 15.18333 C 12.58 g/m*3 15.18 C 0 km/h
30 14-09-2015 05:00:00 14.68333 C 12.2 g/m*3 14.68 C 0.4 km/h
31 14-09-2015 06:00:00 14.41667 C 12 g/m*3 14.42 C 0 km/h
32 14-09-2015 07:00:00 14.4 C 11.99 g/m*3 14.4 C 0 km/h
33 14-09-2015 08:00:00 14.9 C 12.39 g/m*3 14.9 C 0 km/h
34 14-09-2015 09:00:00 15.65 C 12.99 g/m*3 15.65 C 0.93333 km/h
35 14-09-2015 10:00:00 15.89167 C 12.83 g/m*3 15.89 C 8.325 km/h
36 14-09-2015 11:00:00 17.50833 C 13.01 g/m*3 17.51 C 4.275 km/h
37 14-09-2015 12:00:00 18.66667 C 12.52 g/m*3 18.67 C 12.20833 km/h
38 14-09-2015 13:00:00 20.075 C 12.35 g/m*3 20.08 C 10.625 km/h
39 14-09-2015 14:00:00 18.35833 C 13.04 g/m*3 18.36 C 7.23333 km/h
40 14-09-2015 15:00:00 16.83333 C 13.32 g/m*3 16.83 C 0.66667 km/h
41 14-09-2015 16:00:00 15.625 C 12.44 g/m*3 15.63 C 3.20833 km/h
42 14-09-2015 17:00:00 16.05833 C 12.53 g/m*3 16.06 C 4.96667 km/h
43 14-09-2015 18:00:00 16.55 C 12.5 g/m*3 16.55 C 3.20833 km/h
44 14-09-2015 19:00:00 15.23333 C 11.58 g/m*3 15.23 C 4.29167 km/h
45 14-09-2015 20:00:00 13.74167 C 10.46 g/m*3 13.74 C 4.025 km/h
46 14-09-2015 21:00:00 12.13333 C 10.16 g/m*3 12.13 C 1.6 km/h
47 14-09-2015 22:00:00 12.125 C 9.7 g/m*3 12.13 C 2.54167 km/h
48 14-09-2015 23:00:00 12.15 C 9.45 g/m*3 12.15 C 2 km/h
49 15-09-2015 00:00:00 10.95833 C 9.33 g/m*3 10.96 C 0.13333 km/h
50 15-09-2015 01:00:00 10.35 C 9.08 g/m*3 10.35 C 0 km/h
Sensor: Nr:Datum:Temp:Abs-Feuchte:Windchill:Wind:
Aussen-T/F 51 15-09-2015 02:00:00 10.2 C 9.04 g/m*3 10.2 C 0 km/h
52 15-09-2015 03:00:00 9.93333 C 8.89 g/m*3 9.93 C 0.26667 km/h
53 15-09-2015 04:00:00 9.85 C 8.8 g/m*3 9.85 C 1.33333 km/h
54 15-09-2015 05:00:00 9.74167 C 8.66 g/m*3 9.74 C 1.46667 km/h
55 15-09-2015 06:00:00 9.83333 C 8.65 g/m*3 9.83 C 2.26667 km/h
56 15-09-2015 07:00:00 9.925 C 8.71 g/m*3 9.93 C 1.46667 km/h
57 15-09-2015 08:00:00 11.225 C 9.23 g/m*3 11.23 C 3.6 km/h
58 15-09-2015 09:00:00 13.11667 C 9.53 g/m*3 13.12 C 4 km/h
59 15-09-2015 10:00:00 13.975 C 10.01 g/m*3 13.98 C 3.475 km/h
60 15-09-2015 11:00:00 13.00833 C 10.44 g/m*3 13.01 C 1.33333 km/h
61 15-09-2015 12:00:00 14.175 C 11.13 g/m*3 14.18 C 5.36667 km/h
62 15-09-2015 13:00:00 15.175 C 11.05 g/m*3 15.18 C 11.54167 km/h
63 15-09-2015 14:00:00 14.96667 C 10.63 g/m*3 14.97 C 10.89167 km/h
64 15-09-2015 15:00:00 16.26667 C 10.97 g/m*3 16.27 C 7.24167 km/h
65 15-09-2015 16:00:00 18.13333 C 11.08 g/m*3 18.13 C 7.91667 km/h
66 15-09-2015 17:00:00 18.53333 C 10.09 g/m*3 18.53 C 11.94167 km/h
67 15-09-2015 18:00:00 17.50833 C 10.38 g/m*3 17.51 C 4.95833 km/h
68 15-09-2015 19:00:00 15.06667 C 10.46 g/m*3 15.07 C 1.06667 km/h
69 15-09-2015 20:00:00 12.35 C 9.88 g/m*3 12.35 C 0.13333 km/h
70 15-09-2015 21:00:00 11.75 C 9.74 g/m*3 11.75 C 0.8 km/h
71 15-09-2015 22:00:00 11.93333 C 9.79 g/m*3 11.93 C 1.73333 km/h
72 15-09-2015 23:00:00 12.80833 C 9.84 g/m*3 12.81 C 1.2 km/h
73 16-09-2015 00:00:00 12.025 C 9.81 g/m*3 12.03 C 0.53333 km/h
74 16-09-2015 01:00:00 12.43333 C 10.08 g/m*3 12.43 C 0.26667 km/h
75 16-09-2015 02:00:00 12.35833 C 10.19 g/m*3 12.36 C 0.8 km/h
Sensor: Nr:Datum:Temp:Abs-Feuchte:Windchill:Wind:
Aussen-T/F 76 16-09-2015 03:00:00 12.38333 C 10.33 g/m*3 12.38 C 1.6 km/h
77 16-09-2015 04:00:00 12.31667 C 10.38 g/m*3 12.32 C 0 km/h
78 16-09-2015 05:00:00 12.525 C 10.57 g/m*3 12.53 C 3.6 km/h
79 16-09-2015 06:00:00 12.94167 C 10.8 g/m*3 12.94 C 5.49167 km/h
80 16-09-2015 07:00:00 13.1 C 10.82 g/m*3 13.1 C 3.075 km/h
81 16-09-2015 08:00:00 13.19167 C 10.98 g/m*3 13.19 C 0.8 km/h
82 16-09-2015 09:00:00 13.71667 C 11.38 g/m*3 13.72 C 4.55 km/h
83 16-09-2015 10:00:00 14.5 C 11.86 g/m*3 14.5 C 4.13333 km/h
84 16-09-2015 11:00:00 15.05 C 12.19 g/m*3 15.05 C 3.2 km/h
85 16-09-2015 12:00:00 16.03333 C 12.8 g/m*3 16.03 C 6.85 km/h
86 16-09-2015 13:00:00 17.10833 C 13.39 g/m*3 17.11 C 6.04167 km/h
87 16-09-2015 14:00:00 17.90833 C 13.88 g/m*3 17.91 C 4.54167 km/h
88 16-09-2015 15:00:00 18.38333 C 14.18 g/m*3 18.38 C 5.21667 km/h
89 16-09-2015 16:00:00 19.49167 C 14.66 g/m*3 19.49 C 5.09167 km/h
90 16-09-2015 17:00:00 18.04167 C 14.22 g/m*3 18.04 C 2.80833 km/h
91 16-09-2015 18:00:00 17.30833 C 13.55 g/m*3 17.31 C 5.35833 km/h
92 16-09-2015 19:00:00 16.78333 C 13.43 g/m*3 16.78 C 5.36667 km/h
93 16-09-2015 20:00:00 16 C 12.99 g/m*3 16 C 2.26667 km/h
94 16-09-2015 21:00:00 16.13333 C 13.2 g/m*3 16.13 C 1.06667 km/h
95 16-09-2015 22:00:00 15.875 C 13.04 g/m*3 15.88 C 5.1 km/h
96 16-09-2015 23:00:00 14.79167 C 11.79 g/m*3 14.79 C 5.90833 km/h
97 17-09-2015 00:00:00 14.16667 C 11.58 g/m*3 14.17 C 2.14167 km/h
98 17-09-2015 01:00:00 13.84167 C 11.47 g/m*3 13.84 C 1.2 km/h
99 17-09-2015 02:00:00 13.625 C 11.34 g/m*3 13.63 C 1.2 km/h
100 17-09-2015 03:00:00 13.73333 C 11.51 g/m*3 13.73 C 3.74167 km/h
Sensor: Nr:Datum:Temp:Abs-Feuchte:Windchill:Wind:
Aussen-T/F 101 17-09-2015 04:00:00 13.80833 C 11.56 g/m*3 13.81 C 2.53333 km/h
102 17-09-2015 05:00:00 13.89167 C 11.62 g/m*3 13.89 C 1.73333 km/h
103 17-09-2015 06:00:00 13.88333 C 11.62 g/m*3 13.88 C 1.74167 km/h
104 17-09-2015 07:00:00 14.19167 C 11.84 g/m*3 14.19 C 1.86667 km/h
105 17-09-2015 08:00:00 14.475 C 12.05 g/m*3 14.48 C 1.06667 km/h
106 17-09-2015 09:00:00 14.78333 C 12.26 g/m*3 14.78 C 2.00833 km/h
107 17-09-2015 10:00:00 15.29167 C 12.38 g/m*3 15.29 C 5.63333 km/h
108 17-09-2015 11:00:00 15.7 C 12.29 g/m*3 15.7 C 5.35833 km/h
109 17-09-2015 12:00:00 16.09167 C 12.02 g/m*3 16.09 C 5.89167 km/h
110 17-09-2015 13:00:00 15.88333 C 11.66 g/m*3 15.88 C 5.1 km/h
111 17-09-2015 14:00:00 16.025 C 11.2 g/m*3 16.02 C 6.3 km/h
112 17-09-2015 15:00:00 16.28333 C 11.23 g/m*3 16.28 C 5.48333 km/h
113 17-09-2015 16:00:00 16.2 C 11.47 g/m*3 16.2 C 6.58333 km/h
114 17-09-2015 17:00:00 16.21667 C 11.51 g/m*3 16.22 C 5.49167 km/h
115 17-09-2015 18:00:00 16.36667 C 11.34 g/m*3 16.37 C 10.075 km/h
116 17-09-2015 19:00:00 16.075 C 11.1 g/m*3 16.08 C 8.99167 km/h
117 17-09-2015 20:00:00 14.65 C 10.93 g/m*3 14.65 C 3.08333 km/h
118 17-09-2015 21:00:00 12.98333 C 10.54 g/m*3 12.98 C 0.13333 km/h
119 17-09-2015 22:00:00 12.09167 C 10.15 g/m*3 12.09 C 0.26667 km/h
120 17-09-2015 23:00:00 11.5 C 9.85 g/m*3 11.5 C 0.53333 km/h
121 18-09-2015 00:00:00 12.05 C 10.26 g/m*3 12.05 C 0 km/h
122 18-09-2015 01:00:00 12.30833 C 10.43 g/m*3 12.31 C 0 km/h
123 18-09-2015 02:00:00 11.925 C 10.17 g/m*3 11.93 C 0 km/h
124 18-09-2015 03:00:00 11.18333 C 9.72 g/m*3 11.18 C 0 km/h
125 18-09-2015 04:00:00 11.48333 C 9.94 g/m*3 11.48 C 0 km/h
Sensor: Nr:Datum:Temp:Abs-Feuchte:Windchill:Wind:
Aussen-T/F 126 18-09-2015 05:00:00 11.775 C 10.08 g/m*3 11.78 C 0.93333 km/h
127 18-09-2015 06:00:00 12.18333 C 10.35 g/m*3 12.18 C 1.46667 km/h
128 18-09-2015 07:00:00 12.01667 C 10.24 g/m*3 12.02 C 0.26667 km/h
129 18-09-2015 08:00:00 12.80833 C 10.77 g/m*3 12.81 C 0.53333 km/h
130 18-09-2015 09:00:00 13.41667 C 10.91 g/m*3 13.42 C 2.4 km/h
131 18-09-2015 10:00:00 15.05 C 11.13 g/m*3 15.05 C 8.89167 km/h
132 18-09-2015 11:00:00 16.05 C 11.04 g/m*3 16.05 C 10.60833 km/h
133 18-09-2015 12:00:00 16.70833 C 10.74 g/m*3 16.71 C 10.61667 km/h
134 18-09-2015 13:00:00 18.93333 C 10.63 g/m*3 18.93 C 13.3 km/h
135 18-09-2015 14:00:00 19.14167 C 10.27 g/m*3 19.14 C 11.26667 km/h
136 18-09-2015 15:00:00 19.475 C 10.32 g/m*3 19.48 C 12.63333 km/h
137 18-09-2015 16:00:00 20.075 C 10.28 g/m*3 20.08 C 11.96667 km/h
138 18-09-2015 17:00:00 18.75833 C 11.21 g/m*3 18.76 C 3.60833 km/h
139 18-09-2015 18:00:00 16.45833 C 11.45 g/m*3 16.46 C 0.93333 km/h
140 18-09-2015 19:00:00 15.575 C 11.35 g/m*3 15.58 C 0 km/h
141 18-09-2015 20:00:00 13.55 C 10.54 g/m*3 13.55 C 0 km/h
142 18-09-2015 21:00:00 12.75 C 10.27 g/m*3 12.75 C 0 km/h
143 18-09-2015 22:00:00 12.925 C 10.36 g/m*3 12.93 C 0 km/h
144 18-09-2015 23:00:00 12.25 C 10.01 g/m*3 12.25 C 0.53333 km/h
145 19-09-2015 00:00:00 13.25 C 10.25 g/m*3 13.25 C 1.46667 km/h
146 19-09-2015 01:00:00 13 C 10.23 g/m*3 13 C 0.4 km/h
147 19-09-2015 02:00:00 12.05833 C 9.9 g/m*3 12.06 C 0.26667 km/h
148 19-09-2015 03:00:00 11.65 C 9.64 g/m*3 11.65 C 0.66667 km/h
149 19-09-2015 04:00:00 11.775 C 9.86 g/m*3 11.78 C 0 km/h
150 19-09-2015 05:00:00 12.175 C 10.09 g/m*3 12.18 C 0.13333 km/h
Sensor: Nr:Datum:Temp:Abs-Feuchte:Windchill:Wind:
Aussen-T/F 151 19-09-2015 06:00:00 12.225 C 10.11 g/m*3 12.23 C 0 km/h
152 19-09-2015 07:00:00 12.43333 C 10.29 g/m*3 12.43 C 0 km/h
153 19-09-2015 08:00:00 12.89167 C 10.56 g/m*3 12.89 C 0.13333 km/h
154 19-09-2015 09:00:00 14.1 C 10.83 g/m*3 14.1 C 3.2 km/h
155 19-09-2015 10:00:00 14.925 C 10.87 g/m*3 14.93 C 7.65 km/h
156 19-09-2015 11:00:00 15.64167 C 10.87 g/m*3 15.64 C 9.40833 km/h
157 19-09-2015 12:00:00 16.76667 C 10.81 g/m*3 16.77 C 7.25 km/h
158 19-09-2015 13:00:00 17.41667 C 10.73 g/m*3 17.42 C 6.31667 km/h
159 19-09-2015 14:00:00 18.09167 C 10.71 g/m*3 18.09 C 4.14167 km/h
160 19-09-2015 15:00:00 17.525 C 10.78 g/m*3 17.52 C 5.49167 km/h
161 19-09-2015 16:00:00 16.70833 C 11.21 g/m*3 16.71 C 4.95833 km/h
162 19-09-2015 17:00:00 15.70833 C 11.38 g/m*3 15.71 C 1.6 km/h
163 19-09-2015 18:00:00 14.99167 C 11.44 g/m*3 14.99 C 2.00833 km/h
164 19-09-2015 19:00:00 14.56667 C 11.23 g/m*3 14.57 C 0.26667 km/h
165 19-09-2015 20:00:00 13.76667 C 11.13 g/m*3 13.77 C 0 km/h
166 19-09-2015 21:00:00 14 C 11.25 g/m*3 14 C 2.675 km/h
167 19-09-2015 22:00:00 14.25833 C 11.23 g/m*3 14.26 C 3.08333 km/h
168 19-09-2015 23:00:00 13.825 C 11.1 g/m*3 13.83 C 2.26667 km/h
169 20-09-2015 00:00:00 13.575 C 10.97 g/m*3 13.58 C 0.93333 km/h
170 20-09-2015 01:00:00 12.68333 C 10.45 g/m*3 12.68 C 0.66667 km/h
171 20-09-2015 02:00:00 12.09167 C 10.17 g/m*3 12.09 C 0 km/h
172 20-09-2015 03:00:00 11.75833 C 10.03 g/m*3 11.76 C 0.13333 km/h
173 20-09-2015 04:00:00 11.875 C 10.15 g/m*3 11.88 C 0.53333 km/h
174 20-09-2015 05:00:00 11.78333 C 10.08 g/m*3 11.78 C 0.26667 km/h
175 20-09-2015 06:00:00 11.7 C 10.02 g/m*3 11.7 C 2.13333 km/h
Sensor: Nr:Datum:Temp:Abs-Feuchte:Windchill:Wind:
Aussen-T/F 176 20-09-2015 07:00:00 11.7 C 9.94 g/m*3 11.7 C 2.13333 km/h
177 20-09-2015 08:00:00 12.21667 C 10.05 g/m*3 12.22 C 1.2 km/h
178 20-09-2015 09:00:00 12.925 C 10.21 g/m*3 12.93 C 2 km/h
179 20-09-2015 10:00:00 13.43333 C 10.32 g/m*3 13.43 C 3.48333 km/h
180 20-09-2015 11:00:00 14.30833 C 9.93 g/m*3 14.31 C 7.11667 km/h
181 20-09-2015 12:00:00 15.15833 C 9.85 g/m*3 15.16 C 5.76667 km/h
182 20-09-2015 13:00:00 16.8 C 9.77 g/m*3 16.8 C 5.9 km/h
183 20-09-2015 14:00:00 17.225 C 9.15 g/m*3 17.23 C 6.55833 km/h
184 20-09-2015 15:00:00 18.11667 C 9.22 g/m*3 18.12 C 6.16667 km/h
185 20-09-2015 16:00:00 18.00833 C 9.37 g/m*3 18.01 C 6.425 km/h
186 20-09-2015 17:00:00 16.51667 C 9.62 g/m*3 16.52 C 5.63333 km/h
187 20-09-2015 18:00:00 15.05833 C 10.42 g/m*3 15.06 C 0.13333 km/h
188 20-09-2015 19:00:00 13.95833 C 10.38 g/m*3 13.96 C 0 km/h
189 20-09-2015 20:00:00 13.54167 C 10.3 g/m*3 13.54 C 0 km/h
190 20-09-2015 21:00:00 13.08333 C 10.09 g/m*3 13.08 C 0 km/h
191 20-09-2015 22:00:00 11.95833 C 9.58 g/m*3 11.96 C 0 km/h
192 20-09-2015 23:00:00 11.05 C 9.23 g/m*3 11.05 C 0 km/h
193 21-09-2015 00:00:00 10.88333 C 9.24 g/m*3 10.88 C 0.4 km/h
194 21-09-2015 01:00:00 10.70833 C 9.18 g/m*3 10.71 C 0 km/h
195 21-09-2015 02:00:00 10.575 C 9.16 g/m*3 10.58 C 0.13333 km/h
196 21-09-2015 03:00:00 9.85 C 8.78 g/m*3 9.85 C 0.26667 km/h
197 21-09-2015 04:00:00 9.20833 C 8.49 g/m*3 9.21 C 0.26667 km/h
198 21-09-2015 05:00:00 8.71667 C 8.27 g/m*3 8.72 C 0 km/h
199 21-09-2015 06:00:00 8.64167 C 8.27 g/m*3 8.64 C 0.26667 km/h
200 21-09-2015 07:00:00 8.34167 C 8.11 g/m*3 8.34 C 0.66667 km/h
Sensor: Nr:Datum:Temp:Abs-Feuchte:Windchill:Wind:
Aussen-T/F 201 21-09-2015 08:00:00 8.45833 C 8.17 g/m*3 8.46 C 0.26667 km/h
202 21-09-2015 09:00:00 8.90833 C 8.44 g/m*3 8.91 C 0.53333 km/h
203 21-09-2015 10:00:00 9.6 C 8.83 g/m*3 9.6 C 2.26667 km/h
204 21-09-2015 11:00:00 10.44167 C 9.28 g/m*3 10.44 C 0 km/h
205 21-09-2015 12:00:00 12.24167 C 10.25 g/m*3 12.24 C 0.4 km/h
206 21-09-2015 13:00:00 16.275 C 11.21 g/m*3 16.27 C 2 km/h
207 21-09-2015 14:00:00 17.05 C 11.26 g/m*3 17.05 C 2 km/h
208 21-09-2015 15:00:00 17.20833 C 11.44 g/m*3 17.21 C 0.8 km/h
209 21-09-2015 16:00:00 17.64167 C 11.44 g/m*3 17.64 C 0.66667 km/h
210 21-09-2015 17:00:00 16.38333 C 11.74 g/m*3 16.38 C 0 km/h
211 21-09-2015 18:00:00 15.38333 C 11.31 g/m*3 15.38 C 0 km/h
212 21-09-2015 19:00:00 14.05 C 10.59 g/m*3 14.05 C 0.26667 km/h
213 21-09-2015 20:00:00 13.6 C 10.4 g/m*3 13.6 C 0 km/h
214 21-09-2015 21:00:00 13.4 C 10.28 g/m*3 13.4 C 0 km/h
215 21-09-2015 22:00:00 13.025 C 10.14 g/m*3 13.03 C 0 km/h
216 21-09-2015 23:00:00 12.89167 C 10.14 g/m*3 12.89 C 0 km/h
217 22-09-2015 00:00:00 12.75833 C 10.16 g/m*3 12.76 C 0 km/h
218 22-09-2015 01:00:00 12.25833 C 9.86 g/m*3 12.26 C 0 km/h
219 22-09-2015 02:00:00 12.13333 C 9.77 g/m*3 12.13 C 0 km/h
220 22-09-2015 03:00:00 12.15833 C 9.79 g/m*3 12.16 C 0 km/h
221 22-09-2015 04:00:00 12.45 C 9.87 g/m*3 12.45 C 0 km/h
222 22-09-2015 05:00:00 12.9 C 9.91 g/m*3 12.9 C 1.6 km/h
223 22-09-2015 06:00:00 13.2 C 9.94 g/m*3 13.2 C 0.66667 km/h
224 22-09-2015 07:00:00 12.56667 C 10.2 g/m*3 12.57 C 0.8 km/h
225 22-09-2015 08:00:00 13.01667 C 10.56 g/m*3 13.02 C 1.06667 km/h
Sensor: Nr:Datum:Temp:Abs-Feuchte:Windchill:Wind:
Aussen-T/F 226 22-09-2015 09:00:00 13.6 C 10.77 g/m*3 13.6 C 0.4 km/h
227 22-09-2015 10:00:00 13.825 C 10.98 g/m*3 13.83 C 1.33333 km/h
228 22-09-2015 11:00:00 14.05833 C 11.36 g/m*3 14.06 C 0.93333 km/h
229 22-09-2015 12:00:00 14.55833 C 11.73 g/m*3 14.56 C 1.2 km/h
230 22-09-2015 13:00:00 14.49167 C 11.51 g/m*3 14.49 C 4.41667 km/h
231 22-09-2015 14:00:00 13.93333 C 11.15 g/m*3 13.93 C 2.14167 km/h
232 22-09-2015 15:00:00 15.65833 C 11.54 g/m*3 15.66 C 6.44167 km/h
233 22-09-2015 16:00:00 16.33333 C 11.58 g/m*3 16.33 C 3.06667 km/h
234 22-09-2015 17:00:00 14.70833 C 11.59 g/m*3 14.71 C 0.4 km/h
235 22-09-2015 18:00:00 13.74167 C 11.16 g/m*3 13.74 C 0.53333 km/h
236 22-09-2015 19:00:00 12.75833 C 10.47 g/m*3 12.76 C 1.6 km/h
237 22-09-2015 20:00:00 11.425 C 9.66 g/m*3 11.43 C 2 km/h
238 22-09-2015 21:00:00 10.86667 C 9.35 g/m*3 10.87 C 2.13333 km/h
239 22-09-2015 22:00:00 10.36667 C 9.14 g/m*3 10.37 C 0.4 km/h
240 22-09-2015 23:00:00 9.84167 C 8.91 g/m*3 9.84 C 0.13333 km/h
241 23-09-2015 00:00:00 9.875 C 8.95 g/m*3 9.88 C 0.93333 km/h
242 23-09-2015 01:00:00 10.06667 C 9.06 g/m*3 10.07 C 0.4 km/h
243 23-09-2015 02:00:00 10.25 C 9.05 g/m*3 10.25 C 0.53333 km/h
244 23-09-2015 03:00:00 10.15833 C 9.07 g/m*3 10.16 C 0 km/h
245 23-09-2015 04:00:00 10.28333 C 9.18 g/m*3 10.28 C 0 km/h
246 23-09-2015 05:00:00 10.275 C 9.18 g/m*3 10.28 C 0.26667 km/h
247 23-09-2015 06:00:00 10.48333 C 9.19 g/m*3 10.48 C 0.93333 km/h
248 23-09-2015 07:00:00 10.69167 C 9.23 g/m*3 10.69 C 1.73333 km/h
249 23-09-2015 08:00:00 10.80833 C 9.26 g/m*3 10.81 C 2.26667 km/h
250 23-09-2015 09:00:00 11.225 C 9.38 g/m*3 11.23 C 3.75 km/h
Sensor: Nr:Datum:Temp:Abs-Feuchte:Windchill:Wind:
Aussen-T/F 251 23-09-2015 10:00:00 11.825 C 9.63 g/m*3 11.83 C 3.46667 km/h
252 23-09-2015 11:00:00 12.44167 C 10.11 g/m*3 12.44 C 4.40833 km/h
253 23-09-2015 12:00:00 13.65 C 10.54 g/m*3 13.65 C 4.95 km/h
254 23-09-2015 13:00:00 14.35 C 10.67 g/m*3 14.35 C 12.1 km/h
255 23-09-2015 14:00:00 14.45833 C 10.7 g/m*3 14.46 C 11.83333 km/h
256 23-09-2015 15:00:00 13.76667 C 10.78 g/m*3 13.77 C 10.75833 km/h
257 23-09-2015 16:00:00 13.44167 C 10.76 g/m*3 13.44 C 6.85833 km/h
258 23-09-2015 17:00:00 12.95833 C 10.57 g/m*3 12.96 C 7.51667 km/h
259 23-09-2015 18:00:00 12.89167 C 10.59 g/m*3 12.89 C 4.69167 km/h
260 23-09-2015 19:00:00 12.8 C 10.53 g/m*3 12.8 C 3.20833 km/h
261 23-09-2015 20:00:00 12.74167 C 10.48 g/m*3 12.74 C 0.53333 km/h
262 23-09-2015 21:00:00 12.45 C 10.36 g/m*3 12.45 C 0.8 km/h
263 23-09-2015 22:00:00 12.25 C 10.34 g/m*3 12.25 C 0.8 km/h
264 23-09-2015 23:00:00 12.06667 C 10.27 g/m*3 12.07 C 2.01667 km/h
265 24-09-2015 00:00:00 12.05833 C 10.27 g/m*3 12.06 C 0.4 km/h
266 24-09-2015 01:00:00 12.1 C 10.31 g/m*3 12.1 C 0 km/h
267 24-09-2015 02:00:00 11.86667 C 10.17 g/m*3 11.87 C 0 km/h
268 24-09-2015 03:00:00 11.34167 C 9.82 g/m*3 11.34 C 0 km/h
269 24-09-2015 04:00:00 11.025 C 9.62 g/m*3 11.03 C 0.13333 km/h
270 24-09-2015 05:00:00 10.30833 C 9.2 g/m*3 10.31 C 0.13333 km/h
271 24-09-2015 06:00:00 10.05833 C 9.07 g/m*3 10.06 C 0 km/h
272 24-09-2015 07:00:00 10.18333 C 9.2 g/m*3 10.18 C 0 km/h
273 24-09-2015 08:00:00 10.30833 C 9.29 g/m*3 10.31 C 0 km/h
274 24-09-2015 09:00:00 10.275 C 9.24 g/m*3 10.28 C 0 km/h
275 24-09-2015 10:00:00 11.5 C 10.02 g/m*3 11.5 C 0 km/h
Sensor: Nr:Datum:Temp:Abs-Feuchte:Windchill:Wind:
Aussen-T/F 276 24-09-2015 11:00:00 13.06667 C 11.03 g/m*3 13.07 C 1.2 km/h
277 24-09-2015 12:00:00 14.55833 C 11.11 g/m*3 14.56 C 6.70833 km/h
278 24-09-2015 13:00:00 16.69167 C 10.8 g/m*3 16.69 C 12.35833 km/h
279 24-09-2015 14:00:00 16.93333 C 10.99 g/m*3 16.93 C 9.25833 km/h
280 24-09-2015 15:00:00 17.86667 C 11.05 g/m*3 17.87 C 4.94167 km/h
281 24-09-2015 16:00:00 17.29167 C 11.57 g/m*3 17.29 C 3.34167 km/h
282 24-09-2015 17:00:00 16.78333 C 11.72 g/m*3 16.78 C 4.43333 km/h
283 24-09-2015 18:00:00 15.24167 C 11.46 g/m*3 15.24 C 0.53333 km/h
284 24-09-2015 19:00:00 13.66667 C 10.77 g/m*3 13.67 C 1.06667 km/h
285 24-09-2015 20:00:00 12.79167 C 10.39 g/m*3 12.79 C 1.6 km/h
286 24-09-2015 21:00:00 12.70833 C 10.35 g/m*3 12.71 C 0.13333 km/h
287 24-09-2015 22:00:00 12.65 C 10.43 g/m*3 12.65 C 0 km/h
288 24-09-2015 23:00:00 13.03333 C 10.48 g/m*3 13.03 C 1.6 km/h
289 25-09-2015 00:00:00 13.21667 C 10.53 g/m*3 13.22 C 0.4 km/h
290 25-09-2015 01:00:00 13.225 C 10.58 g/m*3 13.23 C 0.26667 km/h
291 25-09-2015 02:00:00 13.40833 C 10.62 g/m*3 13.41 C 0 km/h
292 25-09-2015 03:00:00 13.16667 C 10.55 g/m*3 13.17 C 0.26667 km/h
293 25-09-2015 04:00:00 13.20833 C 10.41 g/m*3 13.21 C 0.8 km/h
294 25-09-2015 05:00:00 12.29167 C 10.17 g/m*3 12.29 C 0.13333 km/h
295 25-09-2015 06:00:00 12.48333 C 10.31 g/m*3 12.48 C 0.26667 km/h
296 25-09-2015 07:00:00 11.30833 C 9.64 g/m*3 11.31 C 0.13333 km/h
297 25-09-2015 08:00:00 10.98333 C 9.57 g/m*3 10.98 C 0.13333 km/h
298 25-09-2015 09:00:00 12.21667 C 10.33 g/m*3 12.22 C 1.06667 km/h
299 25-09-2015 10:00:00 12.85 C 10.48 g/m*3 12.85 C 0 km/h
300 25-09-2015 11:00:00 13.84167 C 10.51 g/m*3 13.84 C 0.66667 km/h
Sensor: Nr:Datum:Temp:Abs-Feuchte:Windchill:Wind:
Aussen-T/F 301 25-09-2015 12:00:00 14.59167 C 10.77 g/m*3 14.59 C 0.53333 km/h
302 25-09-2015 13:00:00 16.975 C 10.73 g/m*3 16.98 C 2.13333 km/h
303 25-09-2015 14:00:00 16.73333 C 10.76 g/m*3 16.73 C 2.15 km/h
304 25-09-2015 15:00:00 18.2 C 9.62 g/m*3 18.2 C 8.34167 km/h
305 25-09-2015 16:00:00 17.59167 C 10.27 g/m*3 17.59 C 2.94167 km/h
306 25-09-2015 17:00:00 15.925 C 11.22 g/m*3 15.93 C 0.13333 km/h
307 25-09-2015 18:00:00 15.175 C 10.72 g/m*3 15.18 C 2.00833 km/h
308 25-09-2015 19:00:00 14.5 C 10.61 g/m*3 14.5 C 0.66667 km/h
309 25-09-2015 20:00:00 13.53333 C 10.63 g/m*3 13.53 C 0 km/h
310 25-09-2015 21:00:00 13.30833 C 10.55 g/m*3 13.31 C 0 km/h
311 25-09-2015 22:00:00 13.19167 C 10.44 g/m*3 13.19 C 0.26667 km/h
312 25-09-2015 23:00:00 12.94167 C 10.29 g/m*3 12.94 C 0 km/h
313 26-09-2015 00:00:00 12.6 C 10.03 g/m*3 12.6 C 0 km/h
314 26-09-2015 01:00:00 12.21667 C 9.85 g/m*3 12.22 C 0 km/h
315 26-09-2015 02:00:00 11.95833 C 9.69 g/m*3 11.96 C 0 km/h
316 26-09-2015 03:00:00 11.55833 C 9.45 g/m*3 11.56 C 0.26667 km/h
317 26-09-2015 04:00:00 11.25 C 9.33 g/m*3 11.25 C 0 km/h
318 26-09-2015 05:00:00 11.125 C 9.34 g/m*3 11.13 C 0 km/h
319 26-09-2015 06:00:00 11.075 C 9.32 g/m*3 11.08 C 0 km/h
320 26-09-2015 07:00:00 10.80833 C 9.21 g/m*3 10.81 C 0 km/h
321 26-09-2015 08:00:00 11.10833 C 9.42 g/m*3 11.11 C 0.26667 km/h
322 26-09-2015 09:00:00 12.00833 C 9.72 g/m*3 12.01 C 0.53333 km/h
323 26-09-2015 10:00:00 13.08333 C 10.1 g/m*3 13.08 C 1.73333 km/h
324 26-09-2015 11:00:00 14.04167 C 10.38 g/m*3 14.04 C 6.15 km/h
325 26-09-2015 12:00:00 14.63333 C 10.52 g/m*3 14.63 C 3.73333 km/h
Sensor: Nr:Datum:Temp:Abs-Feuchte:Windchill:Wind:
Aussen-T/F 326 26-09-2015 13:00:00 15.525 C 10.71 g/m*3 15.53 C 2.4 km/h
327 26-09-2015 14:00:00 15.58333 C 10.6 g/m*3 15.58 C 3.06667 km/h
328 26-09-2015 15:00:00 14.34167 C 10.89 g/m*3 14.34 C 1.46667 km/h
329 26-09-2015 16:00:00 15.075 C 10.73 g/m*3 15.08 C 6.29167 km/h
330 26-09-2015 17:00:00 14.625 C 10.51 g/m*3 14.63 C 4.15 km/h
331 26-09-2015 18:00:00 13.75 C 10.62 g/m*3 13.75 C 0.53333 km/h
332 26-09-2015 19:00:00 13.06667 C 10.26 g/m*3 13.07 C 0 km/h
333 26-09-2015 20:00:00 12.08333 C 9.77 g/m*3 12.08 C 0.26667 km/h
334 26-09-2015 21:00:00 11.65 C 9.67 g/m*3 11.65 C 0 km/h
335 26-09-2015 22:00:00 11.36667 C 9.42 g/m*3 11.37 C 0 km/h
336 26-09-2015 23:00:00 11.2 C 9.33 g/m*3 11.2 C 0 km/h
337 27-09-2015 00:00:00 10.925 C 9.15 g/m*3 10.93 C 0.13333 km/h
338 27-09-2015 01:00:00 10.49167 C 8.81 g/m*3 10.49 C 0.13333 km/h
339 27-09-2015 02:00:00 9.925 C 8.53 g/m*3 9.93 C 0 km/h
340 27-09-2015 03:00:00 9.24167 C 8.28 g/m*3 9.24 C 0 km/h
341 27-09-2015 04:00:00 8.53333 C 8.03 g/m*3 8.53 C 0 km/h
342 27-09-2015 05:00:00 7.975 C 7.81 g/m*3 7.98 C 0 km/h
343 27-09-2015 06:00:00 7.53333 C 7.62 g/m*3 7.53 C 0 km/h
344 27-09-2015 07:00:00 7.15 C 7.46 g/m*3 7.15 C 0 km/h
345 27-09-2015 08:00:00 7.18333 C 7.53 g/m*3 7.18 C 0 km/h
346 27-09-2015 09:00:00 8 C 7.94 g/m*3 8 C 0 km/h
347 27-09-2015 10:00:00 8.9 C 8.41 g/m*3 8.9 C 0 km/h
348 27-09-2015 11:00:00 10.39167 C 9.16 g/m*3 10.39 C 0.13333 km/h
349 27-09-2015 12:00:00 12.975 C 9.11 g/m*3 12.98 C 4.275 km/h
350 27-09-2015 13:00:00 15.54167 C 8.56 g/m*3 15.54 C 5.76667 km/h
Sensor: Nr:Datum:Temp:Abs-Feuchte:Windchill:Wind:
Aussen-T/F 351 27-09-2015 14:00:00 17.04167 C 8.49 g/m*3 17.04 C 10.21667 km/h
352 27-09-2015 15:00:00 17.40833 C 8.55 g/m*3 17.41 C 12.09167 km/h
353 27-09-2015 16:00:00 17.20833 C 8.61 g/m*3 17.21 C 7.39167 km/h
354 27-09-2015 17:00:00 16.78333 C 8.76 g/m*3 16.78 C 5.09167 km/h
355 27-09-2015 18:00:00 14.88333 C 9.19 g/m*3 14.88 C 0.53333 km/h
356 27-09-2015 19:00:00 12.425 C 8.85 g/m*3 12.43 C 0.53333 km/h
357 27-09-2015 20:00:00 11.40833 C 8.53 g/m*3 11.41 C 0.26667 km/h
358 27-09-2015 21:00:00 10.24167 C 8.29 g/m*3 10.24 C 0 km/h
359 27-09-2015 22:00:00 9.55 C 8.06 g/m*3 9.55 C 0 km/h
360 27-09-2015 23:00:00 9.3 C 8.01 g/m*3 9.3 C 0.13333 km/h
361 28-09-2015 00:00:00 9.075 C 7.91 g/m*3 9.07 C 0.4 km/h
362 28-09-2015 01:00:00 8.525 C 7.72 g/m*3 8.53 C 0 km/h
363 28-09-2015 02:00:00 7.74167 C 7.51 g/m*3 7.74 C 0 km/h
364 28-09-2015 03:00:00 7.13333 C 7.32 g/m*3 7.13 C 0 km/h
365 28-09-2015 04:00:00 6.71667 C 7.17 g/m*3 6.72 C 0 km/h
366 28-09-2015 05:00:00 6.40833 C 7.08 g/m*3 6.41 C 0 km/h
367 28-09-2015 06:00:00 6.075 C 6.93 g/m*3 6.08 C 0 km/h
368 28-09-2015 07:00:00 5.625 C 6.74 g/m*3 5.63 C 0 km/h
369 28-09-2015 08:00:00 5.71667 C 6.84 g/m*3 5.72 C 0 km/h
370 28-09-2015 09:00:00 6.48333 C 7.2 g/m*3 6.48 C 0 km/h
371 28-09-2015 10:00:00 7.73333 C 7.84 g/m*3 7.73 C 0 km/h
372 28-09-2015 11:00:00 9.41667 C 8.71 g/m*3 9.42 C 0.13333 km/h
373 28-09-2015 12:00:00 11.94167 C 9.19 g/m*3 11.94 C 4.01667 km/h
374 28-09-2015 13:00:00 16.325 C 8.48 g/m*3 16.33 C 10.61667 km/h
375 28-09-2015 14:00:00 16.98333 C 8.13 g/m*3 16.98 C 10.89167 km/h
Sensor: Nr:Datum:Temp:Abs-Feuchte:Windchill:Wind:
Aussen-T/F 376 28-09-2015 15:00:00 17.30833 C 8.25 g/m*3 17.31 C 8.06667 km/h
377 28-09-2015 16:00:00 17.65 C 7.97 g/m*3 17.65 C 6.7 km/h
378 28-09-2015 17:00:00 17.00833 C 7.94 g/m*3 17.01 C 7.65833 km/h
379 28-09-2015 18:00:00 15.59167 C 8.52 g/m*3 15.59 C 3.20833 km/h
380 28-09-2015 19:00:00 12.51667 C 8.48 g/m*3 12.52 C 1.46667 km/h
381 28-09-2015 20:00:00 11.35833 C 8.28 g/m*3 11.36 C 0.93333 km/h
382 28-09-2015 21:00:00 10.325 C 8.12 g/m*3 10.33 C 0 km/h
383 28-09-2015 22:00:00 9.65 C 8.04 g/m*3 9.65 C 0 km/h
384 28-09-2015 23:00:00 8.86667 C 7.83 g/m*3 8.87 C 0 km/h
385 29-09-2015 00:00:00 8.31667 C 7.75 g/m*3 8.32 C 0.13333 km/h
386 29-09-2015 01:00:00 7.8 C 7.54 g/m*3 7.8 C 0 km/h
387 29-09-2015 02:00:00 7.23333 C 7.37 g/m*3 7.23 C 0 km/h
388 29-09-2015 03:00:00 6.80833 C 7.22 g/m*3 6.81 C 0 km/h
389 29-09-2015 04:00:00 6.6 C 7.17 g/m*3 6.6 C 0 km/h
390 29-09-2015 05:00:00 6.45 C 7.11 g/m*3 6.45 C 0 km/h
391 29-09-2015 06:00:00 6.4 C 7.1 g/m*3 6.4 C 0 km/h
392 29-09-2015 07:00:00 6.41667 C 7.12 g/m*3 6.42 C 0 km/h
393 29-09-2015 08:00:00 6.78333 C 7.33 g/m*3 6.78 C 0 km/h
394 29-09-2015 09:00:00 7.5 C 7.68 g/m*3 7.5 C 0 km/h
395 29-09-2015 10:00:00 8.85 C 8.33 g/m*3 8.85 C 0.8 km/h
396 29-09-2015 11:00:00 11.55 C 8.93 g/m*3 11.55 C 3.6 km/h
397 29-09-2015 12:00:00 14 C 8.67 g/m*3 14 C 8.48333 km/h
398 29-09-2015 13:00:00 16.475 C 8.73 g/m*3 16.48 C 11.15 km/h
399 29-09-2015 14:00:00 16.98333 C 8.59 g/m*3 16.98 C 10.35 km/h
400 29-09-2015 15:00:00 16.96667 C 8.69 g/m*3 16.97 C 9.675 km/h
Sensor: Nr:Datum:Temp:Abs-Feuchte:Windchill:Wind:
Aussen-T/F 401 29-09-2015 16:00:00 17.41667 C 8.44 g/m*3 17.42 C 10.725 km/h
402 29-09-2015 17:00:00 16.60833 C 8.44 g/m*3 16.61 C 10.75 km/h
403 29-09-2015 18:00:00 15.575 C 8.65 g/m*3 15.58 C 2.4 km/h
404 29-09-2015 19:00:00 13.28333 C 8.33 g/m*3 13.28 C 1.46667 km/h
405 29-09-2015 20:00:00 11.78333 C 8.17 g/m*3 11.78 C 1.73333 km/h
406 29-09-2015 21:00:00 11.55 C 8.11 g/m*3 11.55 C 1.73333 km/h
407 29-09-2015 22:00:00 10.95 C 8 g/m*3 10.95 C 2.4 km/h
408 29-09-2015 23:00:00 10.975 C 7.87 g/m*3 10.98 C 2.66667 km/h
409 30-09-2015 00:00:00 9.84167 C 7.68 g/m*3 9.84 C 0.66667 km/h
410 30-09-2015 01:00:00 8.89167 C 7.55 g/m*3 8.89 C 0.13333 km/h
411 30-09-2015 02:00:00 8.45833 C 7.5 g/m*3 8.46 C 0.13333 km/h
412 30-09-2015 03:00:00 8.05833 C 7.41 g/m*3 8.06 C 0 km/h
413 30-09-2015 04:00:00 7.775 C 7.37 g/m*3 7.78 C 0.13333 km/h
414 30-09-2015 05:00:00 7.4 C 7.26 g/m*3 7.4 C 0.13333 km/h
415 30-09-2015 06:00:00 7.025 C 7.16 g/m*3 7.03 C 0.13333 km/h
416 30-09-2015 07:00:00 6.50833 C 6.98 g/m*3 6.51 C 0.13333 km/h
417 30-09-2015 08:00:00 6.425 C 7.01 g/m*3 6.43 C 0 km/h
418 30-09-2015 09:00:00 7.08333 C 7.32 g/m*3 7.08 C 0 km/h
419 30-09-2015 10:00:00 8.06667 C 7.71 g/m*3 8.07 C 0.26667 km/h
420 30-09-2015 11:00:00 9.95 C 8.23 g/m*3 9.95 C 2 km/h
421 30-09-2015 12:00:00 13.16667 C 7.78 g/m*3 13.17 C 7.50833 km/h
422 30-09-2015 13:00:00 15.65 C 7.99 g/m*3 15.65 C 12.36667 km/h
423 30-09-2015 14:00:00 16.3 C 7.91 g/m*3 16.3 C 11.94167 km/h
424 30-09-2015 15:00:00 16.55833 C 7.84 g/m*3 16.56 C 16.63333 km/h
425 30-09-2015 16:00:00 16.30833 C 7.76 g/m*3 16.31 C 8.31667 km/h
Sensor: Nr:Datum:Temp:Abs-Feuchte:Windchill:Wind:
Aussen-T/F 426 30-09-2015 17:00:00 16.25 C 7.54 g/m*3 16.25 C 11.825 km/h
427 30-09-2015 18:00:00 15.4 C 7.78 g/m*3 15.4 C 4.83333 km/h
428 30-09-2015 19:00:00 12.09167 C 7.59 g/m*3 12.09 C 0.93333 km/h
429 30-09-2015 20:00:00 10.825 C 7.47 g/m*3 10.83 C 1.33333 km/h
430 30-09-2015 21:00:00 10.20833 C 7.33 g/m*3 10.21 C 1.2 km/h
431 30-09-2015 22:00:00 9.95 C 7.2 g/m*3 9.95 C 1.06667 km/h
432 30-09-2015 23:00:00 9.41667 C 7.02 g/m*3 9.42 C 0.8 km/h
433 01-10-2015 00:00:00 9.06667 C 6.94 g/m*3 9.07 C 0.66667 km/h
434 01-10-2015 01:00:00 7.98333 C 6.77 g/m*3 7.98 C 0.4 km/h
435 01-10-2015 02:00:00 7.3 C 6.62 g/m*3 7.3 C 0.8 km/h
436 01-10-2015 03:00:00 7.225 C 6.58 g/m*3 7.23 C 0.66667 km/h
437 01-10-2015 04:00:00 6.55833 C 6.48 g/m*3 6.56 C 0.13333 km/h
438 01-10-2015 05:00:00 6.03333 C 6.41 g/m*3 6.03 C 0 km/h
439 01-10-2015 06:00:00 5.96667 C 6.41 g/m*3 5.97 C 0.8 km/h
440 01-10-2015 07:00:00 5.69167 C 6.35 g/m*3 5.69 C 1.06667 km/h
441 01-10-2015 08:00:00 5.51667 C 6.33 g/m*3 5.52 C 0 km/h
442 01-10-2015 09:00:00 6.15 C 6.61 g/m*3 6.15 C 0.26667 km/h
443 01-10-2015 10:00:00 7.6 C 6.92 g/m*3 7.6 C 2.66667 km/h
444 01-10-2015 11:00:00 10.48333 C 6.77 g/m*3 10.05 C 5.9 km/h
445 01-10-2015 12:00:00 11.81667 C 6.77 g/m*3 11.82 C 5.75833 km/h
446 01-10-2015 13:00:00 14.525 C 6.84 g/m*3 14.53 C 9.53333 km/h
447 01-10-2015 14:00:00 15.16667 C 6.75 g/m*3 15.17 C 12.75833 km/h
448 01-10-2015 15:00:00 15.58333 C 6.95 g/m*3 15.58 C 13.03333 km/h
449 01-10-2015 16:00:00 16.06667 C 6.9 g/m*3 16.07 C 11.28333 km/h
450 01-10-2015 17:00:00 15.70833 C 7.07 g/m*3 15.71 C 7.10833 km/h
Sensor: Nr:Datum:Temp:Abs-Feuchte:Windchill:Wind:
Aussen-T/F 451 01-10-2015 18:00:00 13.65 C 7.92 g/m*3 13.65 C 1.86667 km/h
452 01-10-2015 19:00:00 11.25 C 7.61 g/m*3 11.25 C 1.73333 km/h
453 01-10-2015 20:00:00 10.1 C 7.31 g/m*3 10.1 C 0.93333 km/h
454 01-10-2015 21:00:00 9.425 C 7.08 g/m*3 9.43 C 1.2 km/h
455 01-10-2015 22:00:00 9.49167 C 7.01 g/m*3 9.49 C 1.86667 km/h
456 01-10-2015 23:00:00 8.91667 C 6.95 g/m*3 8.92 C 0.8 km/h
457 02-10-2015 00:00:00 7.675 C 6.79 g/m*3 7.68 C 0 km/h
458 02-10-2015 01:00:00 6.73333 C 6.62 g/m*3 6.73 C 0 km/h
459 02-10-2015 02:00:00 5.94167 C 6.45 g/m*3 5.94 C 0 km/h
460 02-10-2015 03:00:00 5.28333 C 6.32 g/m*3 5.28 C 0 km/h
461 02-10-2015 04:00:00 4.8 C 6.2 g/m*3 4.8 C 0.26667 km/h
462 02-10-2015 05:00:00 4.28333 C 6.06 g/m*3 4.28 C 0 km/h
463 02-10-2015 06:00:00 3.81667 C 5.91 g/m*3 3.82 C 0 km/h
464 02-10-2015 07:00:00 3.59167 C 5.88 g/m*3 3.59 C 0 km/h
465 02-10-2015 08:00:00 3.74167 C 5.96 g/m*3 3.74 C 0 km/h
466 02-10-2015 09:00:00 4.3 C 6.21 g/m*3 4.3 C 0 km/h
467 02-10-2015 10:00:00 5.75 C 6.85 g/m*3 5.75 C 0 km/h
468 02-10-2015 11:00:00 7.45833 C 7.58 g/m*3 7.46 C 0 km/h
469 02-10-2015 12:00:00 9.34167 C 8.24 g/m*3 9.34 C 0 km/h
470 02-10-2015 13:00:00 12.90833 C 9.34 g/m*3 12.91 C 1.46667 km/h
471 02-10-2015 14:00:00 14.53333 C 9.72 g/m*3 14.53 C 1.33333 km/h
472 02-10-2015 15:00:00 15.95833 C 9.33 g/m*3 15.96 C 4.83333 km/h
473 02-10-2015 16:00:00 17.75 C 9.02 g/m*3 17.75 C 4.40833 km/h
474 02-10-2015 17:00:00 15.84167 C 9.41 g/m*3 15.84 C 3.33333 km/h
475 02-10-2015 18:00:00 14.49167 C 9.52 g/m*3 14.49 C 2.26667 km/h
Sensor: Nr:Datum:Temp:Abs-Feuchte:Windchill:Wind:
Aussen-T/F 476 02-10-2015 19:00:00 12.975 C 8.9 g/m*3 12.98 C 2.26667 km/h
477 02-10-2015 20:00:00 12 C 8.6 g/m*3 12 C 1.46667 km/h
478 02-10-2015 21:00:00 11.425 C 8.44 g/m*3 11.43 C 0.4 km/h
479 02-10-2015 22:00:00 10.7 C 8.19 g/m*3 10.7 C 0.4 km/h
480 02-10-2015 23:00:00 9.86667 C 7.9 g/m*3 9.87 C 0.26667 km/h
481 03-10-2015 00:00:00 9.225 C 7.76 g/m*3 9.23 C 0 km/h
482 03-10-2015 01:00:00 8.65833 C 7.69 g/m*3 8.66 C 0.13333 km/h
483 03-10-2015 02:00:00 8.4 C 7.72 g/m*3 8.4 C 0.26667 km/h
484 03-10-2015 03:00:00 8.19167 C 7.65 g/m*3 8.19 C 0 km/h
485 03-10-2015 04:00:00 7.50833 C 7.41 g/m*3 7.51 C 0 km/h
486 03-10-2015 05:00:00 7.06667 C 7.24 g/m*3 7.07 C 0 km/h
487 03-10-2015 06:00:00 6.70833 C 7.15 g/m*3 6.71 C 0 km/h
488 03-10-2015 07:00:00 6.41667 C 7.07 g/m*3 6.42 C 0.13333 km/h
489 03-10-2015 08:00:00 6.45 C 7.1 g/m*3 6.45 C 0 km/h
490 03-10-2015 09:00:00 7.11667 C 7.44 g/m*3 7.12 C 0 km/h
491 03-10-2015 10:00:00 8.31667 C 7.99 g/m*3 8.32 C 0.66667 km/h
492 03-10-2015 11:00:00 9.875 C 8.66 g/m*3 9.88 C 0 km/h
493 03-10-2015 12:00:00 11.68333 C 9.52 g/m*3 11.68 C 0.53333 km/h
494 03-10-2015 13:00:00 15.925 C 10.76 g/m*3 15.93 C 4.15833 km/h
495 03-10-2015 14:00:00 18.15 C 10.56 g/m*3 18.15 C 6.43333 km/h
496 03-10-2015 15:00:00 19.25833 C 10.42 g/m*3 19.26 C 6.725 km/h
497 03-10-2015 16:00:00 18.80833 C 11.14 g/m*3 18.81 C 3.60833 km/h
498 03-10-2015 17:00:00 17.83333 C 10.14 g/m*3 17.83 C 3.875 km/h
499 03-10-2015 18:00:00 15.975 C 10.37 g/m*3 15.98 C 1.73333 km/h
500 03-10-2015 19:00:00 14.66667 C 10.11 g/m*3 14.67 C 1.73333 km/h
Sensor: Nr:Datum:Temp:Abs-Feuchte:Windchill:Wind:
Aussen-T/F 501 03-10-2015 20:00:00 13.18333 C 9.85 g/m*3 13.18 C 0.26667 km/h
502 03-10-2015 21:00:00 12.16667 C 9.49 g/m*3 12.17 C 0.13333 km/h
503 03-10-2015 22:00:00 11.39167 C 9.33 g/m*3 11.39 C 0 km/h
504 03-10-2015 23:00:00 10.65833 C 9 g/m*3 10.66 C 0.13333 km/h
505 04-10-2015 00:00:00 10.25833 C 8.91 g/m*3 10.26 C 0 km/h
506 04-10-2015 01:00:00 10.08333 C 8.88 g/m*3 10.08 C 0.53333 km/h
507 04-10-2015 02:00:00 9.80833 C 8.75 g/m*3 9.81 C 0 km/h
508 04-10-2015 03:00:00 9.73333 C 8.78 g/m*3 9.73 C 0 km/h
509 04-10-2015 04:00:00 9.55 C 8.67 g/m*3 9.55 C 0 km/h
510 04-10-2015 05:00:00 9.79167 C 8.87 g/m*3 9.79 C 0.13333 km/h
511 04-10-2015 06:00:00 10.18333 C 9.13 g/m*3 10.18 C 1.2 km/h
512 04-10-2015 07:00:00 11.325 C 9.81 g/m*3 11.33 C 0.66667 km/h
513 04-10-2015 08:00:00 11.75833 C 10.08 g/m*3 11.76 C 0.13333 km/h
514 04-10-2015 09:00:00 12.45833 C 10.6 g/m*3 12.46 C 0.93333 km/h
515 04-10-2015 10:00:00 13.29167 C 11.14 g/m*3 13.29 C 0.26667 km/h
516 04-10-2015 11:00:00 14.46667 C 11.83 g/m*3 14.47 C 1.86667 km/h
517 04-10-2015 12:00:00 15.95 C 12.09 g/m*3 15.95 C 8.20833 km/h
518 04-10-2015 13:00:00 16.45833 C 11.59 g/m*3 16.46 C 9.01667 km/h
519 04-10-2015 14:00:00 16.525 C 11.6 g/m*3 16.52 C 8.20833 km/h
520 04-10-2015 15:00:00 17.10833 C 11.44 g/m*3 17.11 C 8.19167 km/h
521 04-10-2015 16:00:00 16.96667 C 11.34 g/m*3 16.97 C 5.65 km/h
522 04-10-2015 17:00:00 15.325 C 11.45 g/m*3 15.33 C 0.66667 km/h
523 04-10-2015 18:00:00 14.94167 C 11.36 g/m*3 14.94 C 0.26667 km/h
524 04-10-2015 19:00:00 13.525 C 10.6 g/m*3 13.53 C 1.06667 km/h
525 04-10-2015 20:00:00 12.4 C 10.03 g/m*3 12.4 C 0.4 km/h
Sensor: Nr:Datum:Temp:Abs-Feuchte:Windchill:Wind:
Aussen-T/F 526 04-10-2015 21:00:00 11.08333 C 9.32 g/m*3 11.08 C 0.13333 km/h
527 04-10-2015 22:00:00 10.175 C 8.97 g/m*3 10.18 C 0 km/h
528 04-10-2015 23:00:00 9.60833 C 8.71 g/m*3 9.61 C 0 km/h
529 05-10-2015 00:00:00 9.04167 C 8.45 g/m*3 9.04 C 0 km/h
530 05-10-2015 01:00:00 8.81667 C 8.36 g/m*3 8.82 C 0 km/h
531 05-10-2015 02:00:00 8.66667 C 8.28 g/m*3 8.67 C 0 km/h
532 05-10-2015 03:00:00 8.73333 C 8.36 g/m*3 8.73 C 0 km/h
533 05-10-2015 04:00:00 8.9 C 8.5 g/m*3 8.9 C 0 km/h
534 05-10-2015 05:00:00 9.26667 C 8.7 g/m*3 9.27 C 0.13333 km/h
535 05-10-2015 06:00:00 9.15 C 8.63 g/m*3 9.15 C 0.26667 km/h
536 05-10-2015 07:00:00 8.79167 C 8.44 g/m*3 8.79 C 0.66667 km/h
537 05-10-2015 08:00:00 8.40833 C 8.23 g/m*3 8.41 C 2.53333 km/h
538 05-10-2015 09:00:00 9.15 C 8.64 g/m*3 9.15 C 0 km/h
539 05-10-2015 10:00:00 11.19167 C 9.89 g/m*3 11.19 C 1.6 km/h
540 05-10-2015 11:00:00 13.28333 C 10.82 g/m*3 13.28 C 3.60833 km/h
541 05-10-2015 12:00:00 15.20833 C 10.82 g/m*3 15.21 C 5.49167 km/h
542 05-10-2015 13:00:00 15.43333 C 10.62 g/m*3 15.43 C 8.45833 km/h
543 05-10-2015 14:00:00 15.31667 C 10.6 g/m*3 15.32 C 7.775 km/h
544 05-10-2015 15:00:00 15.275 C 10.79 g/m*3 15.28 C 6.96667 km/h
545 05-10-2015 16:00:00 15.34167 C 10.94 g/m*3 15.34 C 2.66667 km/h
546 05-10-2015 17:00:00 15.625 C 11.31 g/m*3 15.63 C 0.93333 km/h
547 05-10-2015 18:00:00 14.54167 C 11.24 g/m*3 14.54 C 0 km/h
548 05-10-2015 19:00:00 13.51667 C 10.85 g/m*3 13.52 C 0 km/h
549 05-10-2015 20:00:00 13.36667 C 10.9 g/m*3 13.37 C 0 km/h
550 05-10-2015 21:00:00 13.53333 C 11.12 g/m*3 13.53 C 0 km/h
Sensor: Nr:Datum:Temp:Abs-Feuchte:Windchill:Wind:
Aussen-T/F 551 05-10-2015 22:00:00 13.325 C 11.11 g/m*3 13.33 C 0 km/h
552 05-10-2015 23:00:00 13.3 C 11.09 g/m*3 13.3 C 0 km/h
553 06-10-2015 00:00:00 13.35 C 11.21 g/m*3 13.35 C 0 km/h
554 06-10-2015 01:00:00 13.51667 C 11.36 g/m*3 13.52 C 0.93333 km/h
555 06-10-2015 02:00:00 14.26667 C 11.89 g/m*3 14.27 C 6.29167 km/h
556 06-10-2015 03:00:00 14.525 C 12 g/m*3 14.53 C 2.675 km/h
557 06-10-2015 04:00:00 14.44167 C 11.9 g/m*3 14.44 C 0.13333 km/h
558 06-10-2015 05:00:00 14.60833 C 12.13 g/m*3 14.61 C 0.26667 km/h
559 06-10-2015 06:00:00 15 C 12.44 g/m*3 15 C 0 km/h
560 06-10-2015 07:00:00 15.11667 C 12.53 g/m*3 15.12 C 0 km/h
561 06-10-2015 08:00:00 15.3 C 12.61 g/m*3 15.3 C 0 km/h
562 06-10-2015 09:00:00 15.88333 C 13.06 g/m*3 15.88 C 0 km/h
563 06-10-2015 10:00:00 16.65833 C 13.61 g/m*3 16.66 C 0 km/h
564 06-10-2015 11:00:00 17.11667 C 13.9 g/m*3 17.12 C 0 km/h
565 06-10-2015 12:00:00 18.30833 C 14.54 g/m*3 18.31 C 0 km/h
566 06-10-2015 13:00:00 19.54167 C 14.65 g/m*3 19.54 C 0 km/h
567 06-10-2015 14:00:00 19.29167 C 14.63 g/m*3 19.29 C 0 km/h
568 06-10-2015 15:00:00 18.19167 C 14.64 g/m*3 18.19 C 0 km/h
569 06-10-2015 16:00:00 18.23333 C 14.72 g/m*3 18.23 C 0 km/h
570 06-10-2015 17:00:00 17.84167 C 14.33 g/m*3 17.84 C 0 km/h
571 06-10-2015 18:00:00 16.69167 C 13.58 g/m*3 16.69 C 0 km/h
572 06-10-2015 19:00:00 15.575 C 12.75 g/m*3 15.58 C 0 km/h
573 06-10-2015 20:00:00 14.89167 C 12.27 g/m*3 14.89 C 0 km/h
574 06-10-2015 21:00:00 14.75833 C 12.26 g/m*3 14.76 C 0 km/h
575 06-10-2015 22:00:00 14.88333 C 12.35 g/m*3 14.88 C 0 km/h
Sensor: Nr:Datum:Temp:Abs-Feuchte:Windchill:Wind:
Aussen-T/F 576 06-10-2015 23:00:00 14.53333 C 12.09 g/m*3 14.53 C 0 km/h
577 07-10-2015 00:00:00 14.33333 C 11.94 g/m*3 14.33 C 0 km/h
578 07-10-2015 01:00:00 14.24167 C 11.87 g/m*3 14.24 C 0 km/h
579 07-10-2015 02:00:00 14.15833 C 11.81 g/m*3 14.16 C 0 km/h
580 07-10-2015 03:00:00 14.1 C 11.81 g/m*3 14.1 C 0.13333 km/h
581 07-10-2015 04:00:00 14 C 11.74 g/m*3 14 C 0.13333 km/h
582 07-10-2015 05:00:00 14.05 C 11.84 g/m*3 14.05 C 0 km/h
583 07-10-2015 06:00:00 14.18333 C 11.95 g/m*3 14.18 C 0 km/h
584 07-10-2015 07:00:00 14.35833 C 12.06 g/m*3 14.36 C 0 km/h
585 07-10-2015 08:00:00 14.275 C 11.91 g/m*3 14.28 C 0 km/h
586 07-10-2015 09:00:00 14.88333 C 12.04 g/m*3 14.88 C 4.43333 km/h
587 07-10-2015 10:00:00 15.6 C 11.74 g/m*3 15.6 C 13.7 km/h
588 07-10-2015 11:00:00 15.54167 C 11.26 g/m*3 15.54 C 13.7 km/h
589 07-10-2015 12:00:00 16.4 C 11.45 g/m*3 16.4 C 14.76667 km/h
590 07-10-2015 13:00:00 17.01667 C 11.5 g/m*3 17.02 C 15.7 km/h
591 07-10-2015 14:00:00 16.875 C 11.43 g/m*3 16.88 C 10.61667 km/h
592 07-10-2015 15:00:00 16.74167 C 11.41 g/m*3 16.74 C 8.99167 km/h
593 07-10-2015 16:00:00 16.58333 C 11.44 g/m*3 16.58 C 10.48333 km/h
594 07-10-2015 17:00:00 16.05 C 11.27 g/m*3 16.05 C 9.53333 km/h
595 07-10-2015 18:00:00 15.2 C 11.11 g/m*3 15.2 C 3.60833 km/h
596 07-10-2015 19:00:00 14.79167 C 10.9 g/m*3 14.79 C 5.9 km/h
597 07-10-2015 20:00:00 14.59167 C 10.73 g/m*3 14.59 C 4.28333 km/h
598 07-10-2015 21:00:00 14.05 C 10.54 g/m*3 14.05 C 2.14167 km/h
599 07-10-2015 22:00:00 13.93333 C 10.44 g/m*3 13.93 C 2.55 km/h
600 07-10-2015 23:00:00 13.80833 C 10.27 g/m*3 13.81 C 3.06667 km/h
Sensor: Nr:Datum:Temp:Abs-Feuchte:Windchill:Wind:
Aussen-T/F 601 08-10-2015 00:00:00 13.45 C 10.23 g/m*3 13.45 C 1.2 km/h
602 08-10-2015 01:00:00 13.49167 C 10.23 g/m*3 13.49 C 3.20833 km/h
603 08-10-2015 02:00:00 13.05 C 10.23 g/m*3 13.05 C 0.26667 km/h
604 08-10-2015 03:00:00 12.65833 C 10.19 g/m*3 12.66 C 0.26667 km/h
605 08-10-2015 04:00:00 12.40833 C 10.06 g/m*3 12.41 C 0 km/h
606 08-10-2015 05:00:00 11.65 C 9.77 g/m*3 11.65 C 0 km/h
607 08-10-2015 06:00:00 11.9 C 9.83 g/m*3 11.9 C 0.53333 km/h
608 08-10-2015 07:00:00 11.70833 C 9.77 g/m*3 11.71 C 0.13333 km/h
609 08-10-2015 08:00:00 11.625 C 9.79 g/m*3 11.63 C 0 km/h
610 08-10-2015 09:00:00 12.38333 C 9.98 g/m*3 12.38 C 1.6 km/h
611 08-10-2015 10:00:00 13.71667 C 10.11 g/m*3 13.72 C 6.18333 km/h
612 08-10-2015 11:00:00 14.51667 C 10.01 g/m*3 14.52 C 6.45 km/h
613 08-10-2015 12:00:00 15.34167 C 9.9 g/m*3 15.34 C 6.025 km/h
614 08-10-2015 13:00:00 16.125 C 9.95 g/m*3 16.13 C 1.86667 km/h
615 08-10-2015 14:00:00 16.04167 C 10.24 g/m*3 16.04 C 5.5 km/h
616 08-10-2015 15:00:00 14.75 C 10.58 g/m*3 14.75 C 2.4 km/h
617 08-10-2015 16:00:00 14.675 C 10.55 g/m*3 14.68 C 4.66667 km/h
618 08-10-2015 17:00:00 14.51667 C 10.32 g/m*3 14.52 C 3.33333 km/h
619 08-10-2015 18:00:00 13.89167 C 10.28 g/m*3 13.89 C 1.60833 km/h
620 08-10-2015 19:00:00 13.475 C 10.09 g/m*3 13.48 C 4.40833 km/h
621 08-10-2015 20:00:00 13.2 C 10.18 g/m*3 13.2 C 1.2 km/h
622 08-10-2015 21:00:00 12.975 C 10.13 g/m*3 12.98 C 1.2 km/h
623 08-10-2015 22:00:00 12.74167 C 10.14 g/m*3 12.74 C 0.66667 km/h
624 08-10-2015 23:00:00 12.63333 C 10.12 g/m*3 12.63 C 0 km/h
625 09-10-2015 00:00:00 12.56667 C 10.15 g/m*3 12.57 C 0 km/h
Sensor: Nr:Datum:Temp:Abs-Feuchte:Windchill:Wind:
Aussen-T/F 626 09-10-2015 01:00:00 12.40833 C 10.16 g/m*3 12.41 C 0 km/h
627 09-10-2015 02:00:00 12.24167 C 10.17 g/m*3 12.24 C 0 km/h
628 09-10-2015 03:00:00 12.18333 C 10.13 g/m*3 12.18 C 0 km/h
629 09-10-2015 04:00:00 12.10833 C 10.11 g/m*3 12.11 C 0 km/h
630 09-10-2015 05:00:00 12.1 C 10.09 g/m*3 12.1 C 0 km/h
631 09-10-2015 06:00:00 12.21667 C 10.06 g/m*3 12.22 C 0 km/h
632 09-10-2015 07:00:00 12.18333 C 10.03 g/m*3 12.18 C 0 km/h
633 09-10-2015 08:00:00 11.925 C 9.9 g/m*3 11.93 C 0 km/h
634 09-10-2015 09:00:00 11.725 C 9.9 g/m*3 11.73 C 0 km/h
635 09-10-2015 10:00:00 11.78333 C 9.94 g/m*3 11.78 C 0 km/h
636 09-10-2015 11:00:00 11.675 C 9.71 g/m*3 11.68 C 0 km/h
637 09-10-2015 12:00:00 12.19167 C 9.91 g/m*3 12.19 C 0 km/h
638 09-10-2015 13:00:00 12.775 C 10.12 g/m*3 12.78 C 0 km/h
639 09-10-2015 14:00:00 12.94167 C 10.1 g/m*3 12.94 C 0 km/h
640 09-10-2015 15:00:00 12.98333 C 10.17 g/m*3 12.98 C 0 km/h
641 09-10-2015 16:00:00 12.9 C 10.25 g/m*3 12.9 C 0 km/h
642 09-10-2015 17:00:00 12.70833 C 10.32 g/m*3 12.71 C 0 km/h
643 09-10-2015 18:00:00 12.425 C 10.33 g/m*3 12.43 C 0 km/h
644 09-10-2015 19:00:00 12.21667 C 10.3 g/m*3 12.22 C 0 km/h
645 09-10-2015 20:00:00 12.21667 C 10.37 g/m*3 12.22 C 0 km/h
646 09-10-2015 21:00:00 12.225 C 10.38 g/m*3 12.23 C 0 km/h
647 09-10-2015 22:00:00 12.20833 C 10.36 g/m*3 12.21 C 0 km/h
648 09-10-2015 23:00:00 12.2 C 10.36 g/m*3 12.2 C 0 km/h
649 10-10-2015 00:00:00 12.26667 C 10.4 g/m*3 12.27 C 0 km/h
650 10-10-2015 01:00:00 12.26667 C 10.4 g/m*3 12.27 C 0 km/h
Sensor: Nr:Datum:Temp:Abs-Feuchte:Windchill:Wind:
Aussen-T/F 651 10-10-2015 02:00:00 12.25 C 10.47 g/m*3 12.25 C 0 km/h
652 10-10-2015 03:00:00 12.24167 C 10.49 g/m*3 12.24 C 0 km/h
653 10-10-2015 04:00:00 12.20833 C 10.47 g/m*3 12.21 C 0 km/h
654 10-10-2015 05:00:00 12.00833 C 10.32 g/m*3 12.01 C 0 km/h
655 10-10-2015 06:00:00 11.8 C 10.21 g/m*3 11.8 C 0 km/h
656 10-10-2015 07:00:00 11.85 C 10.24 g/m*3 11.85 C 0 km/h
657 10-10-2015 08:00:00 12 C 10.33 g/m*3 12 C 0 km/h
658 10-10-2015 09:00:00 11.95 C 10.09 g/m*3 11.95 C 0 km/h
659 10-10-2015 10:00:00 12.71667 C 9.95 g/m*3 12.72 C 0 km/h
660 10-10-2015 11:00:00 12.84167 C 9.84 g/m*3 12.84 C 0 km/h
661 10-10-2015 12:00:00 12.71667 C 9.69 g/m*3 12.72 C 0 km/h
662 10-10-2015 13:00:00 14 C 9.71 g/m*3 14 C 1.73333 km/h
663 10-10-2015 14:00:00 14.7 C 9.71 g/m*3 14.7 C 3.21667 km/h
664 10-10-2015 15:00:00 15.325 C 9.92 g/m*3 15.33 C 2.4 km/h
665 10-10-2015 16:00:00 15.58333 C 9.01 g/m*3 15.58 C 4.29167 km/h
666 10-10-2015 17:00:00 14.54167 C 8.81 g/m*3 14.54 C 1.74167 km/h
667 10-10-2015 18:00:00 12.4 C 8.69 g/m*3 12.4 C 0 km/h
668 10-10-2015 19:00:00 10.43333 C 8.02 g/m*3 10.43 C 0 km/h
669 10-10-2015 20:00:00 9.40833 C 7.69 g/m*3 9.41 C 0 km/h
670 10-10-2015 21:00:00 9.525 C 7.95 g/m*3 9.53 C 0 km/h
671 10-10-2015 22:00:00 9.23333 C 7.73 g/m*3 9.23 C 0 km/h
672 10-10-2015 23:00:00 8.35833 C 7.42 g/m*3 8.36 C 0.4 km/h
673 11-10-2015 00:00:00 8.325 C 7.44 g/m*3 8.32 C 0 km/h
674 11-10-2015 01:00:00 7.95 C 7.27 g/m*3 7.95 C 0 km/h
675 11-10-2015 02:00:00 8.375 C 7.19 g/m*3 8.38 C 0.53333 km/h
Sensor: Nr:Datum:Temp:Abs-Feuchte:Windchill:Wind:
Aussen-T/F 676 11-10-2015 03:00:00 8.3 C 6.95 g/m*3 8.3 C 0 km/h
677 11-10-2015 04:00:00 8.05 C 6.74 g/m*3 8.05 C 0.13333 km/h
678 11-10-2015 05:00:00 7.8 C 6.77 g/m*3 7.8 C 0 km/h
679 11-10-2015 06:00:00 7.35 C 6.53 g/m*3 7.35 C 0.66667 km/h
680 11-10-2015 07:00:00 6.525 C 6.15 g/m*3 6.53 C 0.53333 km/h
681 11-10-2015 08:00:00 5.59167 C 5.9 g/m*3 5.59 C 0 km/h
682 11-10-2015 09:00:00 5.24167 C 5.96 g/m*3 5.24 C 0 km/h
683 11-10-2015 10:00:00 5.48333 C 6.06 g/m*3 5.48 C 0.13333 km/h
684 11-10-2015 11:00:00 6.75833 C 6.22 g/m*3 6.76 C 2.4 km/h
685 11-10-2015 12:00:00 8.5 C 6.4 g/m*3 8.5 C 3.74167 km/h
686 11-10-2015 13:00:00 11.25833 C 6.66 g/m*3 11.26 C 4.675 km/h
687 11-10-2015 14:00:00 12.39167 C 6.64 g/m*3 12.39 C 2.66667 km/h
688 11-10-2015 15:00:00 12.83333 C 6.79 g/m*3 12.83 C 4.53333 km/h
689 11-10-2015 16:00:00 13.03333 C 6.76 g/m*3 13.03 C 5.08333 km/h
690 11-10-2015 17:00:00 12.40833 C 6.69 g/m*3 12.41 C 5.49167 km/h
691 11-10-2015 18:00:00 10.48333 C 6.53 g/m*3 10.48 C 2.13333 km/h
692 11-10-2015 19:00:00 8.55 C 6.17 g/m*3 8.55 C 1.06667 km/h
693 11-10-2015 20:00:00 7.61667 C 6.02 g/m*3 7.62 C 1.33333 km/h
694 11-10-2015 21:00:00 6.74167 C 5.88 g/m*3 6.74 C 1.6 km/h
695 11-10-2015 22:00:00 6.2 C 5.81 g/m*3 6.2 C 0.8 km/h
696 11-10-2015 23:00:00 5.21667 C 5.64 g/m*3 5.22 C 0.4 km/h
697 12-10-2015 00:00:00 4.375 C 5.49 g/m*3 4.38 C 0 km/h
698 12-10-2015 01:00:00 3.925 C 5.33 g/m*3 3.93 C 0.93333 km/h
699 12-10-2015 02:00:00 4.3 C 5.28 g/m*3 4.3 C 2.40833 km/h
700 12-10-2015 03:00:00 3.1 C 5.17 g/m*3 3.1 C 0.13333 km/h
Sensor: Nr:Datum:Temp:Abs-Feuchte:Windchill:Wind:
Aussen-T/F 701 12-10-2015 04:00:00 2.73333 C 5.11 g/m*3 2.73 C 0.13333 km/h
702 12-10-2015 05:00:00 2.125 C 4.95 g/m*3 2.13 C 0 km/h
703 12-10-2015 06:00:00 1.64167 C 4.87 g/m*3 1.64 C 0 km/h
704 12-10-2015 07:00:00 1.24167 C 4.79 g/m*3 1.24 C 0 km/h
705 12-10-2015 08:00:00 1.34167 C 4.87 g/m*3 1.34 C 0 km/h
706 12-10-2015 09:00:00 2.28333 C 5.04 g/m*3 2.28 C 0 km/h
707 12-10-2015 10:00:00 2.89167 C 5.17 g/m*3 2.89 C 0.4 km/h
708 12-10-2015 11:00:00 4.95833 C 5.34 g/m*3 4.96 C 2.26667 km/h
709 12-10-2015 12:00:00 6.36667 C 5.95 g/m*3 6.37 C 0.26667 km/h
710 12-10-2015 13:00:00 8.66667 C 6.34 g/m*3 8.67 C 2.66667 km/h
711 12-10-2015 14:00:00 9.88333 C 6.44 g/m*3 9.88 C 2.8 km/h
712 12-10-2015 15:00:00 10.68333 C 6.79 g/m*3 10.68 C 2.26667 km/h
713 12-10-2015 16:00:00 11.33333 C 6.93 g/m*3 11.33 C 2.14167 km/h
714 12-10-2015 17:00:00 9.83333 C 7.47 g/m*3 9.83 C 0 km/h
715 12-10-2015 18:00:00 8.19167 C 6.79 g/m*3 8.19 C 0.13333 km/h
716 12-10-2015 19:00:00 7.01667 C 6.37 g/m*3 7.02 C 0 km/h
717 12-10-2015 20:00:00 6.54167 C 6.13 g/m*3 6.54 C 0 km/h
718 12-10-2015 21:00:00 5.49167 C 5.79 g/m*3 5.49 C 0.66667 km/h
719 12-10-2015 22:00:00 4.35833 C 5.61 g/m*3 4.36 C 0 km/h
720 12-10-2015 23:00:00 3.49167 C 5.51 g/m*3 3.49 C 0 km/h
721 13-10-2015 00:00:00 2.85 C 5.38 g/m*3 2.85 C 0 km/h
722 13-10-2015 01:00:00 2.23333 C 5.25 g/m*3 2.23 C 0 km/h
723 13-10-2015 02:00:00 1.675 C 5.11 g/m*3 1.68 C 0 km/h
724 13-10-2015 03:00:00 1.11667 C 4.94 g/m*3 1.12 C 0 km/h
725 13-10-2015 04:00:00 0.60833 C 4.8 g/m*3 0.61 C 0.26667 km/h
Sensor: Nr:Datum:Temp:Abs-Feuchte:Windchill:Wind:
Aussen-T/F 726 13-10-2015 05:00:00 0.54167 C 4.78 g/m*3 0.54 C 0.13333 km/h
727 13-10-2015 06:00:00 0.45833 C 4.79 g/m*3 0.46 C 0.13333 km/h
728 13-10-2015 07:00:00 0.46667 C 4.8 g/m*3 0.47 C 0.26667 km/h
729 13-10-2015 08:00:00 0.74167 C 4.9 g/m*3 0.74 C 0.26667 km/h
730 13-10-2015 09:00:00 1.3 C 5.09 g/m*3 1.3 C 0.4 km/h
731 13-10-2015 10:00:00 2.10833 C 5.41 g/m*3 2.11 C 0.53333 km/h
732 13-10-2015 11:00:00 4.41667 C 6.3 g/m*3 4.42 C 0.53333 km/h
733 13-10-2015 12:00:00 6.35833 C 6.59 g/m*3 6.36 C 1.2 km/h
734 13-10-2015 13:00:00 7.51667 C 6.56 g/m*3 7.52 C 2.66667 km/h
735 13-10-2015 14:00:00 8.23333 C 6.68 g/m*3 8.23 C 2.66667 km/h
736 13-10-2015 15:00:00 8.95 C 6.82 g/m*3 8.95 C 2.8 km/h
737 13-10-2015 16:00:00 8.775 C 7.03 g/m*3 8.78 C 2.40833 km/h
738 13-10-2015 17:00:00 8.025 C 6.83 g/m*3 6.61 C 8.33333 km/h
739 13-10-2015 18:00:00 7.425 C 6.76 g/m*3 7.43 C 4.275 km/h
740 13-10-2015 19:00:00 7.04167 C 6.64 g/m*3 7.04 C 4.8 km/h
741 13-10-2015 20:00:00 6.76667 C 6.63 g/m*3 6.77 C 3.86667 km/h
742 13-10-2015 21:00:00 6.175 C 6.69 g/m*3 6.18 C 0 km/h
743 13-10-2015 22:00:00 5.41667 C 6.47 g/m*3 5.42 C 0.8 km/h
744 13-10-2015 23:00:00 4.85 C 6.25 g/m*3 4.85 C 2.4 km/h

Maximal/Minimal-Werte vom 13.09.2015 - 13.10.2015

Sensor Min Max Avg
Temp
(Aussen-T/F)
0.4 °C
13-10-2015  06:05:00
20.9 °C
14-09-2015  14:05:00
12.27 °C
Abs-Feuchte
(Aussen-T/F)
4.78 g/m*3
13-10-2015  05:00:00
14.9 g/m*3
13-09-2015  18:00:00
9.61 g/m*3
Windchill
(Aussen-T/F)
0.46 C
13-10-2015  06:00:00
20.08 C
14-09-2015  13:00:00
12.25 C

Die Daten stammen von einer Davis Vantage Pro 2 Wetter-Station und werden unter Linux mit der Software wview2wettercgi und aufbereitet. Alle Angaben erfolgen ohne Gewähr für ihre Vollständigkeit oder Richtigkeit.
Kontakt: Rainer Krienke krienke@uni-koblenz.de . Meine Webseiten an der Uni Koblenz oder privat.
Version: $Revision: 0.78 $